createdAt,value
2017-10-01T02:34:20.231Z,95.40
2017-10-01T02:36:46.269Z,95.40
2017-10-01T02:39:12.302Z,95.60
2017-10-01T02:41:38.390Z,95.40
2017-10-01T02:44:05.153Z,95.40
2017-10-01T02:46:31.166Z,95.40
2017-10-01T02:48:58.870Z,95.40
2017-10-01T02:51:24.879Z,95.20
2017-10-01T02:53:50.891Z,95.40
2017-10-01T02:56:19.758Z,95.40
2017-10-01T03:01:18.940Z,95.50
2017-10-01T03:03:45.706Z,95.30
2017-10-01T03:08:45.450Z,95.20
2017-10-01T03:11:11.488Z,95.20
2017-10-01T03:13:37.518Z,95.40
2017-10-01T03:16:03.553Z,95.20
2017-10-01T03:18:29.590Z,95.10
2017-10-01T03:20:56.379Z,95.30
2017-10-01T03:23:22.415Z,95.30
2017-10-01T03:25:51.286Z,95.20
2017-10-01T03:28:17.375Z,95.30
2017-10-01T03:30:43.419Z,95.10
2017-10-01T03:35:42.866Z,95.10
2017-10-01T03:38:08.887Z,95.00
2017-10-01T03:40:34.954Z,95.20
2017-10-01T03:43:01.701Z,95.30
2017-10-01T03:45:30.711Z,95.40
2017-10-01T03:47:58.360Z,95.10
2017-10-01T03:50:24.398Z,95.10
2017-10-01T03:52:50.418Z,95.00
2017-10-01T03:55:16.837Z,95.00
2017-10-01T03:57:42.875Z,95.10
2017-10-01T04:00:08.924Z,94.70
2017-10-01T04:02:42.691Z,94.90
2017-10-01T04:05:08.708Z,94.90
2017-10-01T04:07:34.714Z,94.70
2017-10-01T04:10:02.766Z,94.80
2017-10-01T04:12:29.517Z,94.80
2017-10-01T04:14:56.286Z,94.90
2017-10-01T04:17:22.502Z,94.90
2017-10-01T04:19:48.530Z,95.20
2017-10-01T04:22:14.525Z,95.00
2017-10-01T04:24:41.996Z,95.00
2017-10-01T04:27:08.043Z,95.00
2017-10-01T04:29:37.010Z,94.80
2017-10-01T04:32:03.026Z,94.70
2017-10-01T04:34:29.058Z,94.70
2017-10-01T04:36:55.296Z,94.90
2017-10-01T04:39:21.346Z,94.80
2017-10-01T04:41:47.357Z,94.90
2017-10-01T04:44:13.413Z,94.80
2017-10-01T04:46:39.461Z,94.70
2017-10-01T04:49:07.786Z,94.70
2017-10-01T04:51:33.831Z,94.80
2017-10-01T04:53:59.838Z,94.90
2017-10-01T04:56:25.906Z,95.00
2017-10-01T04:58:51.932Z,95.10
2017-10-01T05:01:18.165Z,95.00
2017-10-01T05:03:44.189Z,94.90
2017-10-01T05:06:10.218Z,95.00
2017-10-01T05:08:36.750Z,95.10
2017-10-01T05:11:02.775Z,95.10
2017-10-01T05:13:28.802Z,95.20
2017-10-01T05:15:54.837Z,95.30
2017-10-01T05:18:20.881Z,95.40
2017-10-01T05:20:48.729Z,95.10
2017-10-01T05:23:14.780Z,95.00
2017-10-01T05:25:40.793Z,95.10
2017-10-01T05:28:06.847Z,95.20
2017-10-01T05:30:34.903Z,95.20
2017-10-01T05:33:00.934Z,95.20
2017-10-01T05:35:27.730Z,95.00
2017-10-01T05:37:53.742Z,95.00
2017-10-01T05:40:19.808Z,94.80
2017-10-01T05:42:45.857Z,94.90
2017-10-01T05:45:11.877Z,94.90
2017-10-01T05:47:37.886Z,95.00
2017-10-01T05:50:04.982Z,95.10
2017-10-01T05:52:30.985Z,94.80
2017-10-01T05:54:57.034Z,94.90
2017-10-01T05:57:24.650Z,94.60
2017-10-01T05:59:50.669Z,94.80
2017-10-01T06:02:16.678Z,94.80
2017-10-01T06:04:43.446Z,94.80
2017-10-01T06:07:09.470Z,94.70
2017-10-01T06:09:35.972Z,94.50
2017-10-01T06:12:02.780Z,94.70
2017-10-01T06:14:28.789Z,94.70
2017-10-01T06:16:54.803Z,94.70
2017-10-01T06:19:20.861Z,95.00
2017-10-01T06:21:46.897Z,94.60
2017-10-01T06:24:13.698Z,95.00
2017-10-01T06:26:39.770Z,94.90
2017-10-01T06:29:06.569Z,94.90
2017-10-01T06:31:39.622Z,94.80
2017-10-01T06:34:05.667Z,94.90
2017-10-01T06:36:31.695Z,94.70
2017-10-01T06:38:57.747Z,94.70
2017-10-01T06:49:01.943Z,94.60
2017-10-01T06:51:28.097Z,94.60
2017-10-01T06:53:54.123Z,94.50
2017-10-01T06:56:20.141Z,94.30
2017-10-01T06:58:47.675Z,94.40
2017-10-01T07:01:13.728Z,94.50
2017-10-01T07:03:39.771Z,94.50
2017-10-01T07:06:05.794Z,94.30
2017-10-01T07:08:31.818Z,94.40
2017-10-01T07:13:31.890Z,94.60
2017-10-01T07:15:57.911Z,94.50
2017-10-01T07:18:23.926Z,94.30
2017-10-01T07:20:49.938Z,93.90
2017-10-01T07:23:16.701Z,93.90
2017-10-01T07:25:42.777Z,93.90
2017-10-01T07:28:08.800Z,93.50
2017-10-01T07:30:34.822Z,93.60
2017-10-01T07:33:00.868Z,93.60
2017-10-01T07:35:27.625Z,93.80
2017-10-01T07:37:53.651Z,93.80
2017-10-01T07:40:19.717Z,93.50
2017-10-01T07:42:45.750Z,93.00
2017-10-01T07:45:11.825Z,93.00
2017-10-01T07:47:38.155Z,93.20
2017-10-01T07:50:04.196Z,92.90
2017-10-01T07:52:30.258Z,92.20
2017-10-01T07:54:57.223Z,92.50
2017-10-01T07:57:23.245Z,92.50
2017-10-01T07:59:49.274Z,92.60
2017-10-01T08:02:15.297Z,92.20
2017-10-01T08:04:41.318Z,92.30
2017-10-01T08:07:09.598Z,92.40
2017-10-01T08:09:48.142Z,92.60
2017-10-01T08:12:14.445Z,93.10
2017-10-01T08:14:40.463Z,92.90
2017-10-01T08:17:06.487Z,92.90
2017-10-01T08:22:07.150Z,92.30
2017-10-01T08:24:33.158Z,92.30
2017-10-01T08:26:59.167Z,92.60
2017-10-01T08:29:25.395Z,92.60
2017-10-01T08:31:51.437Z,92.60
2017-10-01T08:34:17.442Z,91.80
2017-10-01T08:36:43.487Z,91.00
2017-10-01T08:39:09.502Z,90.70
2017-10-01T08:41:35.512Z,91.00
2017-10-01T08:44:03.537Z,91.30
2017-10-01T08:46:29.554Z,90.80
2017-10-01T08:48:55.557Z,91.20
2017-10-01T08:51:21.606Z,91.40
2017-10-01T08:53:48.375Z,90.60
2017-10-01T08:56:14.442Z,90.60
2017-10-01T08:58:40.459Z,90.90
2017-10-01T09:01:06.469Z,90.80
2017-10-01T09:03:32.867Z,90.70
2017-10-01T09:05:58.877Z,90.40
2017-10-01T09:08:24.906Z,88.60
2017-10-01T09:10:52.392Z,89.60
2017-10-01T09:13:18.418Z,90.00
2017-10-01T09:15:44.437Z,90.00
2017-10-01T09:18:10.458Z,86.00
2017-10-01T09:20:36.476Z,88.50
2017-10-01T09:23:02.479Z,86.70
2017-10-01T09:25:28.510Z,85.30
2017-10-01T09:27:54.537Z,83.70
2017-10-01T09:30:20.603Z,77.00
2017-10-01T09:32:46.836Z,72.30
2017-10-01T09:35:12.879Z,69.40
2017-10-01T09:37:38.933Z,67.20
2017-10-01T09:40:04.942Z,61.20
2017-10-01T09:42:30.943Z,57.60
2017-10-01T09:44:57.285Z,55.20
2017-10-01T09:47:23.345Z,55.80
2017-10-01T09:49:49.362Z,54.90
2017-10-01T09:52:15.755Z,56.20
2017-10-01T09:54:41.766Z,53.70
2017-10-01T09:57:08.514Z,51.90
2017-10-01T09:59:34.591Z,51.90
2017-10-01T10:02:00.623Z,54.50
2017-10-01T10:04:26.666Z,55.40
2017-10-01T10:06:53.313Z,54.70
2017-10-01T10:09:19.326Z,53.70
2017-10-01T10:11:46.119Z,57.60
2017-10-01T10:14:12.514Z,57.10
2017-10-01T10:16:38.513Z,60.70
2017-10-01T10:19:05.282Z,66.90
2017-10-01T10:21:31.302Z,67.60
2017-10-01T10:23:57.306Z,68.50
2017-10-01T10:26:23.633Z,68.30
2017-10-01T10:28:49.689Z,70.40
2017-10-01T10:31:15.707Z,69.90
2017-10-01T10:33:42.210Z,67.60
2017-10-01T10:36:08.236Z,67.50
2017-10-01T10:38:34.242Z,68.80
2017-10-01T10:41:02.032Z,69.00
2017-10-01T10:43:28.063Z,69.00
2017-10-01T10:45:54.176Z,70.30
2017-10-01T10:48:20.222Z,69.70
2017-10-01T10:50:46.234Z,69.80
2017-10-01T10:53:12.262Z,72.70
2017-10-01T10:55:38.840Z,69.20
2017-10-01T10:58:05.603Z,69.70
2017-10-01T11:00:32.097Z,69.70
2017-10-01T11:02:58.485Z,69.20
2017-10-01T11:05:24.886Z,69.90
2017-10-01T11:07:52.379Z,69.60
2017-10-01T11:10:18.404Z,69.60
2017-10-01T11:12:44.423Z,70.10
2017-10-01T11:15:10.484Z,69.50
2017-10-01T11:17:36.519Z,68.90
2017-10-01T11:20:03.341Z,67.60
2017-10-01T11:22:29.365Z,67.50
2017-10-01T11:24:55.390Z,66.80
2017-10-01T11:27:21.403Z,67.40
2017-10-01T11:29:47.473Z,68.90
2017-10-01T11:32:13.492Z,69.40
2017-10-01T11:34:40.608Z,69.40
2017-10-01T11:37:08.783Z,70.10
2017-10-01T11:39:35.362Z,69.30
2017-10-01T11:42:01.414Z,67.00
2017-10-01T11:44:27.454Z,67.50
2017-10-01T11:46:53.997Z,68.00
2017-10-01T11:49:21.911Z,69.10
2017-10-01T11:51:48.794Z,69.10
2017-10-01T11:54:14.825Z,68.80
2017-10-01T11:56:42.070Z,68.00
2017-10-01T11:59:09.326Z,68.00
2017-10-01T12:01:36.691Z,67.80
2017-10-01T12:04:03.804Z,68.00
2017-10-01T12:06:29.843Z,67.90
2017-10-01T12:08:56.589Z,64.40
2017-10-01T12:11:23.374Z,65.80
2017-10-01T12:13:49.460Z,65.80
2017-10-01T12:16:16.215Z,64.10
2017-10-01T12:18:42.253Z,64.10
2017-10-01T12:21:08.306Z,64.40
2017-10-01T12:23:34.317Z,65.40
2017-10-01T12:26:00.366Z,65.20
2017-10-01T12:28:26.387Z,65.00
2017-10-01T12:30:52.398Z,64.50
2017-10-01T12:33:18.468Z,62.60
2017-10-01T12:35:44.494Z,63.70
2017-10-01T12:38:10.501Z,65.80
2017-10-01T12:40:36.551Z,65.30
2017-10-01T12:43:02.635Z,65.60
2017-10-01T12:45:29.388Z,64.10
2017-10-01T12:47:55.444Z,64.00
2017-10-01T12:50:21.442Z,64.30
2017-10-01T12:52:47.471Z,64.50
2017-10-01T12:55:13.778Z,63.10
2017-10-01T12:57:39.810Z,63.10
2017-10-01T13:00:05.864Z,63.50
2017-10-01T13:02:32.362Z,63.70
2017-10-01T13:04:58.378Z,62.70
2017-10-01T13:07:24.422Z,64.20
2017-10-01T13:09:50.507Z,64.30
2017-10-01T13:12:16.563Z,63.50
2017-10-01T13:14:42.599Z,62.90
2017-10-01T13:17:08.610Z,62.90
2017-10-01T13:19:34.653Z,62.30
2017-10-01T13:22:00.944Z,62.00
2017-10-01T13:24:26.965Z,62.00
2017-10-01T13:26:52.969Z,61.70
2017-10-01T13:29:19.778Z,61.60
2017-10-01T13:31:45.827Z,61.60
2017-10-01T13:34:12.574Z,62.80
2017-10-01T13:36:38.665Z,62.70
2017-10-01T13:39:04.695Z,60.30
2017-10-01T13:41:30.715Z,60.20
2017-10-01T13:43:56.762Z,61.80
2017-10-01T13:46:22.781Z,60.10
2017-10-01T13:48:49.557Z,60.20
2017-10-01T13:51:15.761Z,60.30
2017-10-01T13:53:41.778Z,60.70
2017-10-01T13:56:07.786Z,61.00
2017-10-01T13:58:34.892Z,62.10
2017-10-01T14:01:00.955Z,62.00
2017-10-01T14:03:27.718Z,61.40
2017-10-01T14:05:53.761Z,61.40
2017-10-01T14:08:19.774Z,60.30
2017-10-01T14:10:45.803Z,61.70
2017-10-01T14:13:11.836Z,61.40
2017-10-01T14:15:37.863Z,62.40
2017-10-01T14:18:04.148Z,61.70
2017-10-01T14:20:30.210Z,61.00
2017-10-01T14:22:56.226Z,61.60
2017-10-01T14:25:22.270Z,62.10
2017-10-01T14:27:48.303Z,62.70
2017-10-01T14:30:15.163Z,62.90
2017-10-01T14:32:41.922Z,63.50
2017-10-01T14:35:07.938Z,63.40
2017-10-01T14:37:33.945Z,63.00
2017-10-01T14:40:00.006Z,64.10
2017-10-01T14:42:26.019Z,63.70
2017-10-01T14:44:52.030Z,64.30
2017-10-01T14:47:18.179Z,62.80
2017-10-01T14:49:44.211Z,63.50
2017-10-01T14:52:10.222Z,64.00
2017-10-01T14:54:36.622Z,65.10
2017-10-01T14:57:02.655Z,64.30
2017-10-01T14:59:28.663Z,64.20
2017-10-01T15:01:54.740Z,64.50
2017-10-01T15:04:20.779Z,64.80
2017-10-01T15:06:47.584Z,64.20
2017-10-01T15:09:13.622Z,64.10
2017-10-01T15:11:39.634Z,64.30
2017-10-01T15:14:05.743Z,64.50
2017-10-01T15:16:32.106Z,64.10
2017-10-01T15:18:58.122Z,63.70
2017-10-01T15:21:24.162Z,64.00
2017-10-01T15:23:51.309Z,64.50
2017-10-01T15:26:18.099Z,64.80
2017-10-01T15:28:44.138Z,65.50
2017-10-01T15:31:10.170Z,65.50
2017-10-01T15:33:36.190Z,65.40
2017-10-01T15:36:02.263Z,66.20
2017-10-01T15:38:28.331Z,66.00
2017-10-01T15:40:54.398Z,67.10
2017-10-01T15:43:21.213Z,66.20
2017-10-01T15:45:47.225Z,66.20
2017-10-01T15:48:13.234Z,66.20
2017-10-01T15:50:39.286Z,66.50
2017-10-01T15:53:06.051Z,66.40
2017-10-01T15:55:32.072Z,66.40
2017-10-01T15:57:58.298Z,66.90
2017-10-01T16:00:24.321Z,66.80
2017-10-01T16:02:50.333Z,67.10
2017-10-01T16:05:16.378Z,67.20
2017-10-01T16:07:42.424Z,67.40
2017-10-01T16:10:08.449Z,67.40
2017-10-01T16:12:34.835Z,68.00
2017-10-01T16:15:00.858Z,68.60
2017-10-01T16:17:26.874Z,68.90
2017-10-01T16:19:52.944Z,69.10
2017-10-01T16:22:19.309Z,69.30
2017-10-01T16:24:45.334Z,70.00
2017-10-01T16:27:12.122Z,69.80
2017-10-01T16:29:38.197Z,69.80
2017-10-01T16:32:04.942Z,70.80
2017-10-01T16:34:31.005Z,70.70
2017-10-01T16:36:57.044Z,71.40
2017-10-01T16:39:23.093Z,71.30
2017-10-01T16:41:49.874Z,72.30
2017-10-01T16:44:15.937Z,72.20
2017-10-01T16:46:41.946Z,73.60
2017-10-01T16:49:08.278Z,72.90
2017-10-01T16:51:34.317Z,73.00
2017-10-01T16:54:00.331Z,74.00
2017-10-01T16:56:26.406Z,74.20
2017-10-01T16:58:52.454Z,74.20
2017-10-01T17:01:18.473Z,74.10
2017-10-01T17:03:44.511Z,73.90
2017-10-01T17:06:10.533Z,74.50
2017-10-01T17:08:36.546Z,74.40
2017-10-01T17:11:02.587Z,74.90
2017-10-01T17:13:28.607Z,74.80
2017-10-01T17:15:54.762Z,75.40
2017-10-01T17:18:20.772Z,75.70
2017-10-01T17:20:47.530Z,76.00
2017-10-01T17:23:13.690Z,76.00
2017-10-01T17:25:39.733Z,76.00
2017-10-01T17:28:05.750Z,75.90
2017-10-01T17:30:31.811Z,76.60
2017-10-01T17:32:57.878Z,76.50
2017-10-01T17:35:23.925Z,76.50
2017-10-01T17:37:49.994Z,76.50
2017-10-01T17:40:16.029Z,76.90
2017-10-01T17:42:42.033Z,76.90
2017-10-01T17:45:08.256Z,76.90
2017-10-01T17:47:34.308Z,77.60
2017-10-01T17:50:00.319Z,77.20
2017-10-01T17:52:26.355Z,77.40
2017-10-01T17:54:52.370Z,77.90
2017-10-01T17:57:18.397Z,78.40
2017-10-01T17:59:44.449Z,78.60
2017-10-01T18:02:10.503Z,78.80
2017-10-01T18:04:36.510Z,79.20
2017-10-01T18:07:03.318Z,79.90
2017-10-01T18:09:29.354Z,79.90
2017-10-01T18:11:55.394Z,79.80
2017-10-01T18:14:22.218Z,80.00
2017-10-01T18:16:48.233Z,80.00
2017-10-01T18:19:14.284Z,79.90
2017-10-01T18:21:40.306Z,80.70
2017-10-01T18:24:06.325Z,79.90
2017-10-01T18:26:33.173Z,80.70
2017-10-01T18:28:59.199Z,80.80
2017-10-01T18:31:25.228Z,80.90
2017-10-01T18:33:51.272Z,81.20
2017-10-01T18:36:17.309Z,81.30
2017-10-01T18:38:43.354Z,81.30
2017-10-01T18:41:09.606Z,81.40
2017-10-01T18:43:35.627Z,81.80
2017-10-01T18:46:01.653Z,81.80
2017-10-01T18:48:27.694Z,81.90
2017-10-01T18:50:53.722Z,82.70
2017-10-01T18:53:19.741Z,82.00
2017-10-01T18:55:46.051Z,82.20
2017-10-01T18:58:12.102Z,82.10
2017-10-01T19:00:38.123Z,82.20
2017-10-01T19:03:04.164Z,82.30
2017-10-01T19:05:30.205Z,82.50
2017-10-01T19:07:56.957Z,82.70
2017-10-01T19:10:24.019Z,82.70
2017-10-01T19:12:50.043Z,82.70
2017-10-01T19:15:16.082Z,83.00
2017-10-01T19:17:42.266Z,83.10
2017-10-01T19:20:08.270Z,83.40
2017-10-01T19:22:34.310Z,83.80
2017-10-01T19:25:01.488Z,83.60
2017-10-01T19:27:27.514Z,83.50
2017-10-01T19:29:53.854Z,84.10
2017-10-01T19:32:19.886Z,84.30
2017-10-01T19:34:45.956Z,84.20
2017-10-01T19:37:12.779Z,84.10
2017-10-01T19:39:38.797Z,84.10
2017-10-01T19:42:04.863Z,84.60
2017-10-01T19:44:31.190Z,84.60
2017-10-01T19:46:57.222Z,84.80
2017-10-01T19:49:23.257Z,85.00
2017-10-01T19:51:49.594Z,85.10
2017-10-01T19:54:15.630Z,84.80
2017-10-01T19:56:41.656Z,85.70
2017-10-01T19:59:07.754Z,85.60
2017-10-01T20:01:33.782Z,85.70
2017-10-01T20:03:59.815Z,85.70
2017-10-01T20:06:26.223Z,85.40
2017-10-01T20:08:52.239Z,85.80
2017-10-01T20:11:18.254Z,85.70
2017-10-01T20:13:44.367Z,85.70
2017-10-01T20:16:10.393Z,85.60
2017-10-01T20:18:36.436Z,85.50
2017-10-01T20:21:02.747Z,85.60
2017-10-01T20:23:28.867Z,85.60
2017-10-01T20:25:54.898Z,85.90
2017-10-01T20:28:20.994Z,85.80
2017-10-01T20:30:47.185Z,86.10
2017-10-01T20:33:13.214Z,86.20
2017-10-01T20:35:39.691Z,86.50
2017-10-01T20:38:05.727Z,86.10
2017-10-01T20:40:31.752Z,86.00
2017-10-01T20:42:57.814Z,85.70
2017-10-01T20:45:23.850Z,85.80
2017-10-01T20:47:50.831Z,86.20
2017-10-01T20:50:16.853Z,86.10
2017-10-01T20:52:42.880Z,86.60
2017-10-01T20:55:08.898Z,86.60
2017-10-01T20:57:35.115Z,86.40
2017-10-01T21:00:01.132Z,86.30
2017-10-01T21:02:27.151Z,86.30
2017-10-01T21:04:53.206Z,86.80
2017-10-01T21:07:19.259Z,86.70
2017-10-01T21:09:46.052Z,87.10
2017-10-01T21:12:12.090Z,87.00
2017-10-01T21:14:38.243Z,87.20
2017-10-01T21:17:05.023Z,86.80
2017-10-01T21:19:31.093Z,86.70
2017-10-01T21:21:57.165Z,86.30
2017-10-01T21:24:23.186Z,86.50
2017-10-01T21:26:49.415Z,87.30
2017-10-01T21:29:15.440Z,87.20
2017-10-01T21:31:41.490Z,87.10
2017-10-01T21:34:07.542Z,87.10
2017-10-01T21:36:33.603Z,86.70
2017-10-01T21:38:59.648Z,87.00
2017-10-01T21:41:25.726Z,86.90
2017-10-01T21:43:52.487Z,87.40
2017-10-01T21:46:18.511Z,87.20
2017-10-01T21:48:44.606Z,87.10
2017-10-01T21:51:11.365Z,87.20
2017-10-01T21:53:37.398Z,87.80
2017-10-01T21:56:03.443Z,87.30
2017-10-01T21:58:29.462Z,87.50
2017-10-01T22:00:55.489Z,87.70
2017-10-01T22:03:22.191Z,87.70
2017-10-01T22:05:48.211Z,87.50
2017-10-01T22:08:14.273Z,87.00
2017-10-01T22:10:40.630Z,87.60
2017-10-01T22:13:07.401Z,87.30
2017-10-01T22:15:33.407Z,87.20
2017-10-01T22:18:00.165Z,87.00
2017-10-01T22:20:26.194Z,86.90
2017-10-01T22:22:52.206Z,87.00
2017-10-01T22:25:18.247Z,87.40
2017-10-01T22:27:44.266Z,88.00
2017-10-01T22:30:10.279Z,88.30
2017-10-01T22:32:36.304Z,88.00
2017-10-01T22:35:02.339Z,88.20
2017-10-01T22:37:28.361Z,88.10
2017-10-01T22:39:54.381Z,88.20
2017-10-01T22:42:20.683Z,88.40
2017-10-01T22:44:46.720Z,88.70
2017-10-01T22:47:12.743Z,88.90
2017-10-01T22:49:39.050Z,88.60
2017-10-01T22:52:05.075Z,88.40
2017-10-01T22:54:31.087Z,88.50
2017-10-01T22:56:57.136Z,88.80
2017-10-01T22:59:23.238Z,89.00
2017-10-01T23:01:49.274Z,88.90
2017-10-01T23:04:15.699Z,88.90
2017-10-01T23:06:41.747Z,88.90
2017-10-01T23:09:07.778Z,88.60
2017-10-01T23:11:33.794Z,89.50
2017-10-01T23:13:59.814Z,89.50
2017-10-01T23:16:25.862Z,90.00
2017-10-01T23:18:51.890Z,89.60
2017-10-01T23:21:17.905Z,89.90
2017-10-01T23:23:44.173Z,90.00
2017-10-01T23:26:10.196Z,89.60
2017-10-01T23:28:36.234Z,89.40
2017-10-01T23:31:02.648Z,89.40
2017-10-01T23:33:28.669Z,89.80
2017-10-01T23:35:54.691Z,89.80
2017-10-01T23:38:20.859Z,90.00
2017-10-01T23:40:46.903Z,90.00
2017-10-01T23:43:12.906Z,90.00
2017-10-01T23:45:40.131Z,89.90
2017-10-01T23:48:06.152Z,90.00
2017-10-01T23:50:32.168Z,90.00
2017-10-01T23:52:58.188Z,89.90
2017-10-01T23:55:24.200Z,89.90
2017-10-01T23:57:50.256Z,89.90
